createdAt,value
2022-08-17T00:01:57.727Z,85.88
2022-08-17T00:04:37.487Z,85.92
2022-08-17T00:07:13.782Z,85.98
2022-08-17T00:09:49.696Z,86.16
2022-08-17T00:12:51.263Z,86.09
2022-08-17T00:15:25.165Z,86.07
2022-08-17T00:18:01.075Z,86.19
2022-08-17T00:20:37.133Z,86.14
2022-08-17T00:23:18.150Z,86.07
2022-08-17T00:25:54.820Z,86.06
2022-08-17T00:28:31.084Z,86.24
2022-08-17T00:31:11.516Z,86.48
2022-08-17T00:33:48.035Z,86.61
2022-08-17T00:36:24.342Z,86.65
2022-08-17T00:39:00.553Z,86.62
2022-08-17T00:41:36.766Z,86.60
2022-08-17T00:44:18.341Z,86.39
2022-08-17T00:46:54.377Z,86.22
2022-08-17T00:49:31.477Z,86.20
2022-08-17T00:52:18.511Z,86.25
2022-08-17T00:54:58.121Z,86.37
2022-08-17T00:57:39.166Z,86.54
2022-08-17T01:00:26.623Z,86.46
2022-08-17T01:03:09.796Z,86.34
2022-08-17T01:05:47.498Z,86.43
2022-08-17T01:08:29.489Z,86.48
2022-08-17T01:11:08.941Z,86.40
2022-08-17T01:13:47.838Z,86.31
2022-08-17T01:16:30.819Z,86.32
2022-08-17T01:19:16.973Z,86.34
2022-08-17T01:22:04.290Z,86.54
2022-08-17T01:24:44.232Z,86.64
2022-08-17T01:27:22.427Z,86.76
2022-08-17T01:30:04.202Z,86.99
2022-08-17T01:33:00.245Z,87.19
2022-08-17T01:35:36.368Z,87.39
2022-08-17T01:38:12.866Z,87.69
2022-08-17T01:40:58.192Z,87.95
2022-08-17T01:43:44.700Z,88.15
2022-08-17T01:46:28.101Z,88.34
2022-08-17T01:49:08.387Z,88.44
2022-08-17T01:51:44.785Z,88.54
2022-08-17T01:54:25.314Z,88.56
2022-08-17T01:57:01.190Z,88.60
2022-08-17T01:59:37.640Z,88.50
2022-08-17T02:02:30.447Z,88.40
2022-08-17T02:05:10.320Z,88.30
2022-08-17T02:07:48.007Z,88.20
2022-08-17T02:10:36.624Z,88.14
2022-08-17T02:13:24.014Z,88.10
2022-08-17T02:16:01.173Z,88.18
2022-08-17T02:18:37.556Z,88.36
2022-08-17T02:21:13.914Z,88.63
2022-08-17T02:23:52.848Z,88.71
2022-08-17T02:26:29.183Z,88.82
2022-08-17T02:29:06.155Z,88.97
2022-08-17T02:31:42.130Z,89.17
2022-08-17T02:34:18.202Z,89.33
2022-08-17T02:36:54.332Z,89.41
2022-08-17T02:39:30.351Z,89.50
2022-08-17T02:42:09.932Z,89.52
2022-08-17T02:44:46.055Z,89.61
2022-08-17T02:47:21.996Z,89.62
2022-08-17T02:49:58.100Z,89.66
2022-08-17T02:52:43.162Z,89.76
2022-08-17T02:55:40.285Z,89.82
2022-08-17T02:58:18.168Z,89.80
2022-08-17T03:01:13.802Z,89.80
2022-08-17T03:03:49.713Z,89.81
2022-08-17T03:06:25.861Z,89.79
2022-08-17T03:09:01.762Z,89.78
2022-08-17T03:11:37.933Z,89.73
2022-08-17T03:14:14.060Z,89.66
2022-08-17T03:16:50.495Z,89.54
2022-08-17T03:19:26.376Z,89.26
2022-08-17T03:22:35.582Z,89.12
2022-08-17T03:25:01.964Z,88.98
2022-08-17T03:27:39.475Z,88.88
2022-08-17T03:30:18.828Z,88.77
2022-08-17T03:33:01.248Z,88.72
2022-08-17T03:35:40.430Z,88.70
2022-08-17T03:38:17.980Z,88.67
2022-08-17T03:40:59.445Z,88.60
2022-08-17T03:43:37.499Z,88.60
2022-08-17T03:46:35.151Z,88.50
2022-08-17T03:49:30.624Z,88.50
2022-08-17T03:52:24.758Z,88.56
2022-08-17T03:55:18.774Z,88.59
2022-08-17T03:57:54.626Z,88.53
2022-08-17T04:00:30.855Z,88.40
2022-08-17T04:03:07.643Z,88.48
2022-08-17T04:05:45.911Z,88.52
2022-08-17T04:08:21.896Z,88.52
2022-08-17T04:11:00.221Z,88.41
2022-08-17T04:13:36.188Z,88.10
2022-08-17T04:16:13.105Z,87.93
2022-08-17T04:18:49.009Z,87.76
2022-08-17T04:21:26.455Z,87.66
2022-08-17T04:24:02.760Z,87.16
2022-08-17T04:26:52.527Z,86.41
2022-08-17T04:29:54.557Z,85.67
2022-08-17T04:33:04.698Z,84.51
2022-08-17T04:35:28.488Z,83.96
2022-08-17T04:38:04.607Z,82.75
2022-08-17T04:40:58.454Z,81.68
2022-08-17T04:43:37.815Z,80.79
2022-08-17T04:46:20.502Z,79.64
2022-08-17T04:49:00.663Z,79.04
2022-08-17T04:51:43.786Z,78.02
2022-08-17T04:54:33.049Z,77.01
2022-08-17T04:57:09.285Z,75.78
2022-08-17T04:59:45.215Z,74.98
2022-08-17T05:02:21.221Z,74.12
2022-08-17T05:04:57.192Z,73.53
2022-08-17T05:07:33.091Z,72.60
2022-08-17T05:10:11.031Z,71.04
2022-08-17T05:12:47.013Z,70.16
2022-08-17T05:15:22.998Z,69.35
2022-08-17T05:17:59.267Z,68.09
2022-08-17T05:20:38.033Z,67.27
2022-08-17T05:23:18.679Z,66.61
2022-08-17T05:25:58.349Z,65.46
2022-08-17T05:28:34.771Z,64.72
2022-08-17T05:31:12.355Z,64.44
2022-08-17T05:33:49.616Z,63.45
2022-08-17T05:36:42.546Z,62.82
2022-08-17T05:39:20.559Z,62.14
2022-08-17T05:41:56.495Z,61.64
2022-08-17T05:44:32.504Z,60.97
2022-08-17T05:47:09.996Z,60.75
2022-08-17T05:49:48.983Z,59.87
2022-08-17T05:52:40.635Z,59.32
2022-08-17T05:55:33.476Z,58.82
2022-08-17T05:58:29.067Z,58.44
2022-08-17T06:01:16.607Z,57.97
2022-08-17T06:04:07.643Z,56.73
2022-08-17T06:06:53.066Z,56.28
2022-08-17T06:09:45.839Z,56.14
2022-08-17T06:12:47.234Z,55.94
2022-08-17T06:15:44.430Z,55.22
2022-08-17T06:18:23.433Z,54.81
2022-08-17T06:21:05.851Z,54.18
2022-08-17T06:23:50.704Z,52.81
2022-08-17T06:26:37.370Z,52.57
2022-08-17T06:29:37.229Z,52.40
2022-08-17T06:32:15.117Z,52.05
2022-08-17T06:34:51.640Z,51.72
2022-08-17T06:37:52.445Z,51.36
2022-08-17T06:41:00.079Z,51.50
2022-08-17T06:44:09.390Z,50.69
2022-08-17T06:46:52.071Z,50.15
2022-08-17T06:49:43.010Z,49.48
2022-08-17T06:52:37.589Z,49.02
2022-08-17T06:55:37.862Z,48.74
2022-08-17T06:58:16.965Z,47.91
2022-08-17T07:00:59.295Z,48.34
2022-08-17T07:03:46.473Z,47.52
2022-08-17T07:06:29.195Z,47.64
2022-08-17T07:09:11.720Z,47.17
2022-08-17T07:11:57.520Z,47.50
2022-08-17T07:14:44.522Z,47.96
2022-08-17T07:17:46.497Z,47.36
2022-08-17T07:20:23.518Z,47.22
2022-08-17T07:23:13.996Z,46.93
2022-08-17T07:25:48.774Z,47.21
2022-08-17T07:28:29.928Z,46.65
2022-08-17T07:31:07.108Z,46.55
2022-08-17T07:33:59.195Z,45.78
2022-08-17T07:36:35.360Z,46.31
2022-08-17T07:39:11.848Z,45.75
2022-08-17T07:41:53.069Z,45.22
2022-08-17T07:44:47.396Z,45.26
2022-08-17T07:47:43.084Z,44.85
2022-08-17T07:50:33.217Z,45.49
2022-08-17T07:53:23.176Z,45.15
2022-08-17T07:55:59.266Z,44.59
2022-08-17T07:58:35.308Z,44.28
2022-08-17T08:01:18.462Z,43.75
2022-08-17T08:03:55.246Z,44.26
2022-08-17T08:06:32.436Z,44.15
2022-08-17T08:09:08.643Z,43.52
2022-08-17T08:11:44.597Z,44.11
2022-08-17T08:14:34.042Z,44.20
2022-08-17T08:17:12.255Z,43.82
2022-08-17T08:19:48.276Z,43.35
2022-08-17T08:22:36.328Z,43.24
2022-08-17T08:25:43.782Z,43.24
2022-08-17T08:28:35.814Z,43.70
2022-08-17T08:31:28.257Z,43.67
2022-08-17T08:34:44.629Z,43.80
2022-08-17T08:37:35.542Z,43.89
2022-08-17T08:40:38.463Z,44.22
2022-08-17T08:43:29.097Z,43.78
2022-08-17T08:46:23.952Z,43.87
2022-08-17T08:50:37.446Z,44.47
2022-08-17T08:53:27.462Z,44.17
2022-08-17T08:56:13.100Z,44.38
2022-08-17T08:59:04.399Z,43.77
2022-08-17T09:01:58.278Z,44.22
2022-08-17T09:05:13.993Z,44.47
2022-08-17T09:08:04.623Z,45.60
2022-08-17T09:10:58.513Z,45.81
2022-08-17T09:13:52.927Z,45.40
2022-08-17T09:16:40.578Z,46.22
2022-08-17T09:19:30.527Z,46.79
2022-08-17T09:22:17.798Z,47.41
2022-08-17T09:25:05.002Z,48.56
2022-08-17T09:27:54.949Z,49.15
2022-08-17T09:30:45.637Z,49.37
2022-08-17T09:33:27.909Z,49.09
2022-08-17T09:36:11.164Z,49.31
2022-08-17T09:39:01.158Z,50.11
2022-08-17T09:41:49.162Z,50.24
2022-08-17T09:44:40.171Z,50.67
2022-08-17T09:47:30.643Z,49.40
2022-08-17T09:51:03.940Z,48.68
2022-08-17T09:53:17.960Z,48.14
2022-08-17T09:56:27.365Z,48.73
2022-08-17T09:59:38.700Z,48.45
2022-08-17T10:02:50.591Z,47.78
2022-08-17T10:05:38.057Z,47.63
2022-08-17T10:08:32.240Z,47.57
2022-08-17T10:11:50.692Z,47.02
2022-08-17T10:14:43.958Z,47.34
2022-08-17T10:17:32.552Z,47.13
2022-08-17T10:20:19.120Z,47.33
2022-08-17T10:23:21.871Z,47.90
2022-08-17T10:26:15.475Z,48.85
2022-08-17T10:29:00.561Z,48.62
2022-08-17T10:31:48.997Z,48.00
2022-08-17T10:34:53.017Z,46.67
2022-08-17T10:37:57.043Z,46.63
2022-08-17T10:40:50.361Z,47.05
2022-08-17T10:44:36.723Z,46.47
2022-08-17T10:47:07.561Z,45.37
2022-08-17T10:49:48.116Z,45.46
2022-08-17T10:52:55.422Z,45.97
2022-08-17T10:55:31.339Z,45.37
2022-08-17T10:58:24.748Z,46.52
2022-08-17T11:01:03.951Z,46.52
2022-08-17T11:03:48.473Z,45.90
2022-08-17T11:06:48.004Z,46.95
2022-08-17T11:09:55.543Z,46.64
2022-08-17T11:12:51.666Z,46.04
2022-08-17T11:15:54.980Z,46.69
2022-08-17T11:19:08.745Z,47.13
2022-08-17T11:22:22.003Z,46.93
2022-08-17T11:25:10.046Z,47.24
2022-08-17T11:28:05.556Z,47.20
2022-08-17T11:30:53.534Z,47.67
2022-08-17T11:34:08.987Z,47.38
2022-08-17T11:37:22.122Z,48.62
2022-08-17T11:40:28.498Z,49.09
2022-08-17T11:43:45.731Z,49.22
2022-08-17T11:46:57.128Z,48.78
2022-08-17T11:50:25.710Z,48.87
2022-08-17T11:53:04.083Z,47.93
2022-08-17T11:56:10.430Z,48.00
2022-08-17T11:58:48.473Z,48.20
2022-08-17T12:01:57.947Z,47.72
2022-08-17T12:04:37.059Z,48.75
2022-08-17T12:07:21.846Z,48.49
2022-08-17T12:09:59.896Z,47.42
2022-08-17T12:12:36.891Z,47.42
2022-08-17T12:15:28.719Z,46.79
2022-08-17T12:18:05.033Z,45.63
2022-08-17T12:21:00.639Z,45.47
2022-08-17T12:23:48.733Z,45.36
2022-08-17T12:26:31.360Z,45.37
2022-08-17T12:29:18.090Z,45.30
2022-08-17T12:32:21.251Z,45.96
2022-08-17T12:34:57.720Z,46.30
2022-08-17T12:37:45.178Z,45.72
2022-08-17T12:40:29.431Z,46.04
2022-08-17T12:43:08.815Z,45.79
2022-08-17T12:45:46.501Z,45.83
2022-08-17T12:48:31.093Z,46.07
2022-08-17T12:51:13.403Z,45.63
2022-08-17T12:53:57.841Z,44.42
2022-08-17T12:56:34.957Z,44.54
2022-08-17T12:59:13.467Z,44.83
2022-08-17T13:01:53.198Z,44.36
2022-08-17T13:04:30.046Z,43.30
2022-08-17T13:07:06.800Z,42.58
2022-08-17T13:09:51.582Z,42.68
2022-08-17T13:12:37.085Z,42.87
2022-08-17T13:15:26.222Z,43.65
2022-08-17T13:18:09.665Z,44.44
2022-08-17T13:20:56.084Z,44.02
2022-08-17T13:23:34.053Z,43.99
2022-08-17T13:26:18.788Z,44.59
2022-08-17T13:28:55.473Z,44.54
2022-08-17T13:31:52.167Z,44.93
2022-08-17T13:35:11.955Z,44.83
2022-08-17T13:37:42.573Z,44.95
2022-08-17T13:40:54.974Z,45.16
2022-08-17T13:43:51.039Z,44.30
2022-08-17T13:46:33.321Z,43.77
2022-08-17T13:49:14.548Z,44.14
2022-08-17T13:51:52.127Z,44.35
2022-08-17T13:54:36.350Z,44.23
2022-08-17T13:57:28.040Z,44.53
2022-08-17T14:00:29.937Z,45.14
2022-08-17T14:03:08.465Z,44.43
2022-08-17T14:05:46.053Z,44.61
2022-08-17T14:08:23.296Z,44.02
2022-08-17T14:11:02.989Z,44.43
2022-08-17T14:13:38.951Z,45.23
2022-08-17T14:16:15.830Z,45.38
2022-08-17T14:18:56.870Z,44.33
2022-08-17T14:21:35.690Z,43.56
2022-08-17T14:24:26.036Z,44.30
2022-08-17T14:27:05.986Z,43.88
2022-08-17T14:29:42.826Z,44.27
2022-08-17T14:32:28.336Z,44.46
2022-08-17T14:35:05.949Z,44.84
2022-08-17T14:37:45.700Z,45.09
2022-08-17T14:40:25.445Z,45.48
2022-08-17T14:43:01.780Z,45.24
2022-08-17T14:45:38.036Z,44.98
2022-08-17T14:48:14.068Z,44.66
2022-08-17T14:50:50.075Z,44.52
2022-08-17T14:53:26.084Z,45.44
2022-08-17T14:56:02.793Z,45.91
2022-08-17T14:58:39.138Z,45.30
2022-08-17T15:01:17.302Z,43.55
2022-08-17T15:03:54.342Z,44.05
2022-08-17T15:06:30.621Z,44.71
2022-08-17T15:09:06.868Z,44.88
2022-08-17T15:11:43.335Z,45.26
2022-08-17T15:14:19.570Z,45.48
2022-08-17T15:16:55.637Z,45.61
2022-08-17T15:19:31.732Z,45.02
2022-08-17T15:22:08.117Z,45.11
2022-08-17T15:24:44.014Z,45.34
2022-08-17T15:27:24.232Z,44.68
2022-08-17T15:30:12.556Z,43.14
2022-08-17T15:32:54.321Z,43.47
2022-08-17T15:35:34.510Z,44.05
2022-08-17T15:38:13.165Z,48.00
2022-08-17T15:40:53.167Z,49.53
2022-08-17T15:43:32.663Z,50.13
2022-08-17T15:46:15.426Z,50.95
2022-08-17T15:48:59.146Z,52.40
2022-08-17T15:51:38.283Z,53.60
2022-08-17T15:54:18.683Z,54.22
2022-08-17T15:56:58.231Z,55.05
2022-08-17T15:59:35.825Z,55.62
2022-08-17T16:03:13.776Z,55.97
2022-08-17T16:05:31.139Z,56.63
2022-08-17T16:08:07.897Z,57.20
2022-08-17T16:10:43.939Z,57.69
2022-08-17T16:13:20.714Z,58.15
2022-08-17T16:15:57.619Z,58.45
2022-08-17T16:18:35.504Z,58.53
2022-08-17T16:21:31.186Z,58.60
2022-08-17T16:24:19.854Z,58.82
2022-08-17T16:26:56.276Z,58.70
2022-08-17T16:29:32.541Z,58.81
2022-08-17T16:32:21.849Z,58.92
2022-08-17T16:35:17.466Z,59.12
2022-08-17T16:37:55.875Z,58.94
2022-08-17T16:40:35.695Z,58.94
2022-08-17T16:43:12.476Z,59.01
2022-08-17T16:45:52.099Z,59.02
2022-08-17T16:48:28.975Z,59.16
2022-08-17T16:51:05.025Z,59.23
2022-08-17T16:53:43.709Z,58.97
2022-08-17T16:56:20.405Z,59.06
2022-08-17T16:58:56.860Z,58.94
2022-08-17T17:01:50.410Z,59.09
2022-08-17T17:04:26.902Z,59.33
2022-08-17T17:07:12.080Z,59.48
2022-08-17T17:09:52.714Z,59.77
2022-08-17T17:12:58.181Z,59.96
2022-08-17T17:15:43.555Z,60.10
2022-08-17T17:18:26.570Z,60.25
2022-08-17T17:21:03.677Z,60.36
2022-08-17T17:23:56.174Z,60.46
2022-08-17T17:27:07.232Z,60.88
2022-08-17T17:30:00.847Z,61.00
2022-08-17T17:32:49.373Z,61.56
2022-08-17T17:35:34.039Z,62.14
2022-08-17T17:38:24.174Z,62.55
2022-08-17T17:41:14.259Z,62.88
2022-08-17T17:43:52.159Z,63.23
2022-08-17T17:46:35.967Z,63.65
2022-08-17T17:49:17.413Z,64.07
2022-08-17T17:52:14.415Z,64.48
2022-08-17T17:55:10.304Z,65.26
2022-08-17T17:58:07.635Z,65.92
2022-08-17T18:00:55.086Z,66.20
2022-08-17T18:04:04.699Z,66.40
2022-08-17T18:07:13.166Z,67.00
2022-08-17T18:10:29.532Z,67.43
2022-08-17T18:13:22.882Z,67.96
2022-08-17T18:16:04.945Z,68.51
2022-08-17T18:18:44.824Z,68.93
2022-08-17T18:21:27.623Z,69.31
2022-08-17T18:24:07.161Z,69.71
2022-08-17T18:26:55.273Z,69.98
2022-08-17T18:29:51.683Z,70.15
2022-08-17T18:32:40.083Z,70.44
2022-08-17T18:35:35.760Z,70.78
2022-08-17T18:38:33.730Z,71.19
2022-08-17T18:41:30.670Z,71.42
2022-08-17T18:44:24.436Z,71.70
2022-08-17T18:47:19.967Z,72.13
2022-08-17T18:50:19.751Z,72.40
2022-08-17T18:53:16.391Z,72.44
2022-08-17T18:55:52.420Z,72.68
2022-08-17T18:58:30.588Z,72.87
2022-08-17T19:01:22.244Z,72.99
2022-08-17T19:04:36.629Z,73.42
2022-08-17T19:07:35.163Z,73.75
2022-08-17T19:10:28.746Z,74.11
2022-08-17T19:13:14.085Z,74.73
2022-08-17T19:16:15.381Z,74.82
2022-08-17T19:18:57.959Z,74.96
2022-08-17T19:21:43.125Z,75.15
2022-08-17T19:24:23.953Z,75.51
2022-08-17T19:27:14.080Z,75.80
2022-08-17T19:30:02.760Z,76.12
2022-08-17T19:32:43.464Z,76.21
2022-08-17T19:35:22.907Z,76.44
2022-08-17T19:38:13.484Z,76.43
2022-08-17T19:41:06.085Z,76.59
2022-08-17T19:44:23.644Z,76.77
2022-08-17T19:47:19.612Z,76.76
2022-08-17T19:50:18.876Z,76.77
2022-08-17T19:53:05.944Z,76.87
2022-08-17T19:55:59.034Z,76.90
2022-08-17T19:58:58.579Z,77.25
2022-08-17T20:01:51.796Z,77.59
2022-08-17T20:04:43.724Z,77.53
2022-08-17T20:07:23.489Z,77.41
2022-08-17T20:10:07.974Z,77.58
2022-08-17T20:12:51.120Z,77.97
2022-08-17T20:15:35.201Z,78.05
2022-08-17T20:18:23.983Z,78.09
2022-08-17T20:21:20.110Z,78.32
2022-08-17T20:24:15.539Z,78.23
2022-08-17T20:27:00.170Z,78.12
2022-08-17T20:30:06.739Z,78.33
2022-08-17T20:32:56.877Z,78.27
2022-08-17T20:35:36.387Z,78.33
2022-08-17T20:38:40.930Z,78.53
2022-08-17T20:41:23.292Z,78.59
2022-08-17T20:44:09.865Z,78.83
2022-08-17T20:47:04.666Z,79.25
2022-08-17T20:49:56.738Z,79.31
2022-08-17T20:53:00.335Z,79.28
2022-08-17T20:55:58.190Z,79.23
2022-08-17T20:58:50.977Z,79.55
2022-08-17T21:01:45.453Z,79.64
2022-08-17T21:05:21.256Z,79.68
2022-08-17T21:08:14.251Z,79.88
2022-08-17T21:10:50.831Z,79.95
2022-08-17T21:14:09.170Z,80.13
2022-08-17T21:17:17.778Z,80.46
2022-08-17T21:20:12.218Z,80.57
2022-08-17T21:23:15.888Z,80.67
2022-08-17T21:26:29.672Z,80.80
2022-08-17T21:29:30.831Z,80.75
2022-08-17T21:32:28.258Z,80.73
2022-08-17T21:35:48.627Z,80.71
2022-08-17T21:38:36.894Z,80.84
2022-08-17T21:41:26.494Z,81.14
2022-08-17T21:44:21.765Z,81.30
2022-08-17T21:47:18.512Z,81.24
2022-08-17T21:49:55.582Z,81.36
2022-08-17T21:52:34.523Z,81.45
2022-08-17T21:55:23.081Z,81.42
2022-08-17T21:58:14.868Z,81.51
2022-08-17T22:01:12.367Z,81.97
2022-08-17T22:03:56.653Z,82.18
2022-08-17T22:06:41.565Z,82.33
2022-08-17T22:09:25.971Z,82.54
2022-08-17T22:12:19.623Z,82.50
2022-08-17T22:15:09.828Z,82.61
2022-08-17T22:17:50.849Z,82.83
2022-08-17T22:20:27.701Z,82.94
2022-08-17T22:23:43.354Z,82.97
2022-08-17T22:26:23.643Z,82.91
2022-08-17T22:29:02.007Z,82.90
2022-08-17T22:31:58.923Z,82.91
2022-08-17T22:34:35.098Z,82.88
2022-08-17T22:37:31.561Z,82.99
2022-08-17T22:40:09.856Z,83.06
2022-08-17T22:42:50.170Z,83.03
2022-08-17T22:45:26.893Z,83.23
2022-08-17T22:48:05.408Z,83.48
2022-08-17T22:50:41.810Z,83.60
2022-08-17T22:53:41.953Z,83.84
2022-08-17T22:56:42.708Z,84.03
2022-08-17T22:59:46.944Z,84.37
2022-08-17T23:02:31.090Z,84.24
2022-08-17T23:05:26.418Z,84.30
2022-08-17T23:08:02.592Z,84.43
2022-08-17T23:10:39.455Z,84.55
2022-08-17T23:13:17.004Z,84.75
2022-08-17T23:15:54.440Z,84.70
2022-08-17T23:18:30.361Z,84.88
2022-08-17T23:21:07.803Z,85.10
2022-08-17T23:23:44.283Z,85.23
2022-08-17T23:26:21.632Z,85.19
2022-08-17T23:28:57.697Z,85.05
2022-08-17T23:31:34.747Z,85.06
2022-08-17T23:34:18.367Z,85.00
2022-08-17T23:36:55.187Z,85.03
2022-08-17T23:39:31.379Z,85.31
2022-08-17T23:42:13.028Z,85.46
2022-08-17T23:44:47.329Z,85.70
2022-08-17T23:47:23.332Z,85.81
2022-08-17T23:49:59.481Z,85.92
2022-08-17T23:52:41.307Z,86.08
2022-08-17T23:55:17.878Z,86.34
2022-08-17T23:57:54.031Z,86.24
